sensor_id;sensor_type;location;lat;lon;timestamp;P1;durP1;ratioP1;P2;durP2;ratioP2
17065;SDS011;23120;52.336;21.182;2023-05-10T00:00:13;0.20;;;0.20;;
17065;SDS011;23120;52.336;21.182;2023-05-10T00:02:41;0.30;;;0.30;;
17065;SDS011;23120;52.336;21.182;2023-05-10T00:05:09;0.20;;;0.20;;
17065;SDS011;23120;52.336;21.182;2023-05-10T00:07:36;0.30;;;0.30;;
17065;SDS011;23120;52.336;21.182;2023-05-10T00:10:05;0.20;;;0.20;;
17065;SDS011;23120;52.336;21.182;2023-05-10T00:12:32;0.20;;;0.20;;
17065;SDS011;23120;52.336;21.182;2023-05-10T00:14:59;0.20;;;0.20;;
17065;SDS011;23120;52.336;21.182;2023-05-10T00:17:26;0.20;;;0.20;;
17065;SDS011;23120;52.336;21.182;2023-05-10T00:19:53;0.20;;;0.20;;
17065;SDS011;23120;52.336;21.182;2023-05-10T00:22:20;0.20;;;0.20;;
17065;SDS011;23120;52.336;21.182;2023-05-10T00:24:50;0.20;;;0.20;;
17065;SDS011;23120;52.336;21.182;2023-05-10T00:27:18;0.20;;;0.20;;
17065;SDS011;23120;52.336;21.182;2023-05-10T00:29:46;0.30;;;0.30;;
17065;SDS011;23120;52.336;21.182;2023-05-10T00:32:15;0.20;;;0.20;;
17065;SDS011;23120;52.336;21.182;2023-05-10T00:34:42;0.20;;;0.20;;
17065;SDS011;23120;52.336;21.182;2023-05-10T00:37:10;0.20;;;0.20;;
17065;SDS011;23120;52.336;21.182;2023-05-10T00:39:37;0.20;;;0.20;;
17065;SDS011;23120;52.336;21.182;2023-05-10T00:42:07;0.30;;;0.30;;
17065;SDS011;23120;52.336;21.182;2023-05-10T00:44:35;0.20;;;0.20;;
17065;SDS011;23120;52.336;21.182;2023-05-10T00:47:04;0.20;;;0.20;;
17065;SDS011;23120;52.336;21.182;2023-05-10T00:49:34;0.20;;;0.20;;
17065;SDS011;23120;52.336;21.182;2023-05-10T00:52:01;0.20;;;0.20;;
17065;SDS011;23120;52.336;21.182;2023-05-10T00:54:29;0.20;;;0.20;;
17065;SDS011;23120;52.336;21.182;2023-05-10T00:56:56;0.20;;;0.20;;
17065;SDS011;23120;52.336;21.182;2023-05-10T00:59:23;0.20;;;0.20;;
17065;SDS011;23120;52.336;21.182;2023-05-10T01:01:52;0.20;;;0.20;;
17065;SDS011;23120;52.336;21.182;2023-05-10T01:04:19;0.20;;;0.20;;
17065;SDS011;23120;52.336;21.182;2023-05-10T01:06:50;0.20;;;0.20;;
17065;SDS011;23120;52.336;21.182;2023-05-10T01:09:17;0.30;;;0.30;;
17065;SDS011;23120;52.336;21.182;2023-05-10T01:14:40;0.20;;;0.20;;
17065;SDS011;23120;52.336;21.182;2023-05-10T01:17:09;0.20;;;0.20;;
17065;SDS011;23120;52.336;21.182;2023-05-10T01:19:37;0.30;;;0.30;;
17065;SDS011;23120;52.336;21.182;2023-05-10T01:22:06;0.20;;;0.20;;
17065;SDS011;23120;52.336;21.182;2023-05-10T01:30:53;0.27;;;0.27;;
17065;SDS011;23120;52.336;21.182;2023-05-10T01:33:40;0.20;;;0.20;;
17065;SDS011;23120;52.336;21.182;2023-05-10T01:36:15;0.20;;;0.20;;
17065;SDS011;23120;52.336;21.182;2023-05-10T01:38:51;0.30;;;0.30;;
17065;SDS011;23120;52.336;21.182;2023-05-10T01:41:24;0.20;;;0.20;;
17065;SDS011;23120;52.336;21.182;2023-05-10T01:44:02;0.20;;;0.20;;
17065;SDS011;23120;52.336;21.182;2023-05-10T01:46:36;0.20;;;0.20;;
17065;SDS011;23120;52.336;21.182;2023-05-10T01:49:07;0.20;;;0.20;;
17065;SDS011;23120;52.336;21.182;2023-05-10T01:51:36;0.20;;;0.20;;
17065;SDS011;23120;52.336;21.182;2023-05-10T01:54:07;0.20;;;0.20;;
17065;SDS011;23120;52.336;21.182;2023-05-10T01:56:36;0.20;;;0.20;;
17065;SDS011;23120;52.336;21.182;2023-05-10T01:59:06;0.30;;;0.30;;
17065;SDS011;23120;52.336;21.182;2023-05-10T02:01:35;0.20;;;0.20;;
17065;SDS011;23120;52.336;21.182;2023-05-10T02:04:07;0.20;;;0.20;;
17065;SDS011;23120;52.336;21.182;2023-05-10T02:06:37;0.20;;;0.20;;
17065;SDS011;23120;52.336;21.182;2023-05-10T02:09:05;0.20;;;0.20;;
17065;SDS011;23120;52.336;21.182;2023-05-10T02:11:34;0.20;;;0.20;;
17065;SDS011;23120;52.336;21.182;2023-05-10T02:14:03;0.20;;;0.20;;
17065;SDS011;23120;52.336;21.182;2023-05-10T02:16:33;0.20;;;0.20;;
17065;SDS011;23120;52.336;21.182;2023-05-10T02:19:04;0.20;;;0.20;;
17065;SDS011;23120;52.336;21.182;2023-05-10T02:21:34;0.20;;;0.20;;
17065;SDS011;23120;52.336;21.182;2023-05-10T02:24:02;0.20;;;0.20;;
17065;SDS011;23120;52.336;21.182;2023-05-10T02:26:31;0.20;;;0.20;;
17065;SDS011;23120;52.336;21.182;2023-05-10T02:29:00;0.20;;;0.20;;
17065;SDS011;23120;52.336;21.182;2023-05-10T02:31:29;0.20;;;0.20;;
17065;SDS011;23120;52.336;21.182;2023-05-10T02:33:58;0.20;;;0.20;;
17065;SDS011;23120;52.336;21.182;2023-05-10T02:36:28;0.20;;;0.20;;
17065;SDS011;23120;52.336;21.182;2023-05-10T02:38:56;0.30;;;0.30;;
17065;SDS011;23120;52.336;21.182;2023-05-10T02:41:26;0.20;;;0.20;;
17065;SDS011;23120;52.336;21.182;2023-05-10T02:43:56;0.20;;;0.20;;
17065;SDS011;23120;52.336;21.182;2023-05-10T02:46:27;0.20;;;0.20;;
17065;SDS011;23120;52.336;21.182;2023-05-10T02:48:57;0.20;;;0.20;;
17065;SDS011;23120;52.336;21.182;2023-05-10T02:51:25;0.30;;;0.30;;
17065;SDS011;23120;52.336;21.182;2023-05-10T02:54:00;0.20;;;0.20;;
17065;SDS011;23120;52.336;21.182;2023-05-10T02:56:34;0.20;;;0.20;;
17065;SDS011;23120;52.336;21.182;2023-05-10T02:59:04;0.20;;;0.20;;
17065;SDS011;23120;52.336;21.182;2023-05-10T03:01:31;0.20;;;0.20;;
17065;SDS011;23120;52.336;21.182;2023-05-10T03:03:59;0.20;;;0.20;;
17065;SDS011;23120;52.336;21.182;2023-05-10T03:06:26;0.20;;;0.20;;
17065;SDS011;23120;52.336;21.182;2023-05-10T03:08:54;0.20;;;0.20;;
17065;SDS011;23120;52.336;21.182;2023-05-10T03:11:31;0.30;;;0.30;;
17065;SDS011;23120;52.336;21.182;2023-05-10T03:14:16;0.20;;;0.20;;
17065;SDS011;23120;52.336;21.182;2023-05-10T03:16:56;0.20;;;0.20;;
17065;SDS011;23120;52.336;21.182;2023-05-10T03:19:40;0.30;;;0.30;;
17065;SDS011;23120;52.336;21.182;2023-05-10T03:22:16;0.20;;;0.20;;
17065;SDS011;23120;52.336;21.182;2023-05-10T03:24:49;0.30;;;0.30;;
17065;SDS011;23120;52.336;21.182;2023-05-10T03:27:20;0.20;;;0.20;;
17065;SDS011;23120;52.336;21.182;2023-05-10T03:29:53;0.30;;;0.30;;
17065;SDS011;23120;52.336;21.182;2023-05-10T03:32:26;0.30;;;0.30;;
17065;SDS011;23120;52.336;21.182;2023-05-10T03:34:55;0.20;;;0.20;;
17065;SDS011;23120;52.336;21.182;2023-05-10T03:37:25;0.20;;;0.20;;
17065;SDS011;23120;52.336;21.182;2023-05-10T03:39:54;0.20;;;0.20;;
17065;SDS011;23120;52.336;21.182;2023-05-10T03:42:21;0.20;;;0.20;;
17065;SDS011;23120;52.336;21.182;2023-05-10T03:44:48;0.20;;;0.20;;
17065;SDS011;23120;52.336;21.182;2023-05-10T03:47:17;0.20;;;0.20;;
17065;SDS011;23120;52.336;21.182;2023-05-10T03:49:45;0.20;;;0.20;;
17065;SDS011;23120;52.336;21.182;2023-05-10T03:52:12;0.30;;;0.30;;
17065;SDS011;23120;52.336;21.182;2023-05-10T03:54:39;0.20;;;0.20;;
17065;SDS011;23120;52.336;21.182;2023-05-10T03:57:15;0.20;;;0.20;;
17065;SDS011;23120;52.336;21.182;2023-05-10T03:59:51;0.30;;;0.30;;
17065;SDS011;23120;52.336;21.182;2023-05-10T04:02:18;0.30;;;0.30;;
17065;SDS011;23120;52.336;21.182;2023-05-10T04:04:45;0.30;;;0.30;;
17065;SDS011;23120;52.336;21.182;2023-05-10T04:07:12;0.30;;;0.30;;
17065;SDS011;23120;52.336;21.182;2023-05-10T04:09:39;0.30;;;0.30;;
17065;SDS011;23120;52.336;21.182;2023-05-10T04:12:06;0.30;;;0.30;;
17065;SDS011;23120;52.336;21.182;2023-05-10T04:14:34;0.30;;;0.30;;
17065;SDS011;23120;52.336;21.182;2023-05-10T04:17:03;0.20;;;0.20;;
17065;SDS011;23120;52.336;21.182;2023-05-10T04:19:30;0.30;;;0.30;;
17065;SDS011;23120;52.336;21.182;2023-05-10T04:21:58;0.20;;;0.20;;
17065;SDS011;23120;52.336;21.182;2023-05-10T04:24:33;0.30;;;0.30;;
17065;SDS011;23120;52.336;21.182;2023-05-10T04:27:00;0.20;;;0.20;;
17065;SDS011;23120;52.336;21.182;2023-05-10T04:29:30;0.20;;;0.20;;
17065;SDS011;23120;52.336;21.182;2023-05-10T04:32:01;0.20;;;0.20;;
17065;SDS011;23120;52.336;21.182;2023-05-10T04:34:30;0.20;;;0.20;;
17065;SDS011;23120;52.336;21.182;2023-05-10T04:36:59;0.20;;;0.20;;
17065;SDS011;23120;52.336;21.182;2023-05-10T04:39:28;0.20;;;0.20;;
17065;SDS011;23120;52.336;21.182;2023-05-10T04:41:56;0.20;;;0.20;;
17065;SDS011;23120;52.336;21.182;2023-05-10T04:44:23;0.20;;;0.20;;
17065;SDS011;23120;52.336;21.182;2023-05-10T04:46:50;0.20;;;0.20;;
17065;SDS011;23120;52.336;21.182;2023-05-10T04:49:19;0.30;;;0.30;;
17065;SDS011;23120;52.336;21.182;2023-05-10T04:51:46;0.20;;;0.20;;
17065;SDS011;23120;52.336;21.182;2023-05-10T04:54:14;0.30;;;0.30;;
17065;SDS011;23120;52.336;21.182;2023-05-10T04:56:52;0.20;;;0.20;;
17065;SDS011;23120;52.336;21.182;2023-05-10T04:59:19;0.20;;;0.20;;
17065;SDS011;23120;52.336;21.182;2023-05-10T05:02:07;0.30;;;0.30;;
17065;SDS011;23120;52.336;21.182;2023-05-10T05:04:35;0.30;;;0.30;;
17065;SDS011;23120;52.336;21.182;2023-05-10T05:07:04;0.20;;;0.20;;
17065;SDS011;23120;52.336;21.182;2023-05-10T05:09:40;0.20;;;0.20;;
17065;SDS011;23120;52.336;21.182;2023-05-10T05:12:11;0.20;;;0.20;;
17065;SDS011;23120;52.336;21.182;2023-05-10T05:14:46;0.20;;;0.20;;
17065;SDS011;23120;52.336;21.182;2023-05-10T05:17:19;0.30;;;0.30;;
17065;SDS011;23120;52.336;21.182;2023-05-10T05:19:50;0.27;;;0.27;;
17065;SDS011;23120;52.336;21.182;2023-05-10T05:22:17;0.20;;;0.20;;
17065;SDS011;23120;52.336;21.182;2023-05-10T05:24:54;0.20;;;0.20;;
17065;SDS011;23120;52.336;21.182;2023-05-10T05:27:30;0.20;;;0.20;;
17065;SDS011;23120;52.336;21.182;2023-05-10T05:30:01;0.20;;;0.20;;
17065;SDS011;23120;52.336;21.182;2023-05-10T05:32:30;0.20;;;0.20;;
17065;SDS011;23120;52.336;21.182;2023-05-10T05:35:19;0.20;;;0.20;;
17065;SDS011;23120;52.336;21.182;2023-05-10T05:38:30;0.20;;;0.20;;
17065;SDS011;23120;52.336;21.182;2023-05-10T05:41:40;0.20;;;0.20;;
17065;SDS011;23120;52.336;21.182;2023-05-10T05:44:01;0.20;;;0.20;;
17065;SDS011;23120;52.336;21.182;2023-05-10T05:46:28;0.20;;;0.20;;
17065;SDS011;23120;52.336;21.182;2023-05-10T05:48:57;0.20;;;0.20;;
17065;SDS011;23120;52.336;21.182;2023-05-10T05:51:26;0.20;;;0.20;;
17065;SDS011;23120;52.336;21.182;2023-05-10T05:54:02;0.20;;;0.20;;
17065;SDS011;23120;52.336;21.182;2023-05-10T05:56:34;0.20;;;0.20;;
17065;SDS011;23120;52.336;21.182;2023-05-10T05:59:03;0.20;;;0.20;;
17065;SDS011;23120;52.336;21.182;2023-05-10T06:02:09;0.20;;;0.20;;
17065;SDS011;23120;52.336;21.182;2023-05-10T06:04:43;0.20;;;0.20;;
17065;SDS011;23120;52.336;21.182;2023-05-10T06:07:38;0.20;;;0.20;;
17065;SDS011;23120;52.336;21.182;2023-05-10T06:10:50;0.20;;;0.20;;
17065;SDS011;23120;52.336;21.182;2023-05-10T06:13:15;0.20;;;0.20;;
17065;SDS011;23120;52.336;21.182;2023-05-10T06:15:47;0.20;;;0.20;;
17065;SDS011;23120;52.336;21.182;2023-05-10T06:18:27;0.20;;;0.20;;
17065;SDS011;23120;52.336;21.182;2023-05-10T06:20:54;0.30;;;0.30;;
17065;SDS011;23120;52.336;21.182;2023-05-10T06:23:44;0.20;;;0.20;;
17065;SDS011;23120;52.336;21.182;2023-05-10T06:26:55;0.20;;;0.20;;
17065;SDS011;23120;52.336;21.182;2023-05-10T06:29:35;0.20;;;0.20;;
17065;SDS011;23120;52.336;21.182;2023-05-10T06:32:29;0.20;;;0.20;;
17065;SDS011;23120;52.336;21.182;2023-05-10T06:34:57;0.20;;;0.20;;
17065;SDS011;23120;52.336;21.182;2023-05-10T06:37:24;0.20;;;0.20;;
17065;SDS011;23120;52.336;21.182;2023-05-10T06:39:52;0.20;;;0.20;;
17065;SDS011;23120;52.336;21.182;2023-05-10T06:42:22;0.20;;;0.20;;
17065;SDS011;23120;52.336;21.182;2023-05-10T06:44:51;0.20;;;0.20;;
17065;SDS011;23120;52.336;21.182;2023-05-10T06:47:18;0.20;;;0.20;;
17065;SDS011;23120;52.336;21.182;2023-05-10T06:49:45;0.30;;;0.30;;
17065;SDS011;23120;52.336;21.182;2023-05-10T06:52:15;0.20;;;0.20;;
17065;SDS011;23120;52.336;21.182;2023-05-10T06:54:45;0.20;;;0.20;;
17065;SDS011;23120;52.336;21.182;2023-05-10T06:57:14;0.20;;;0.20;;
17065;SDS011;23120;52.336;21.182;2023-05-10T06:59:41;0.20;;;0.20;;
17065;SDS011;23120;52.336;21.182;2023-05-10T07:02:08;0.20;;;0.20;;
17065;SDS011;23120;52.336;21.182;2023-05-10T07:04:36;0.20;;;0.20;;
17065;SDS011;23120;52.336;21.182;2023-05-10T07:07:24;0.20;;;0.20;;
17065;SDS011;23120;52.336;21.182;2023-05-10T07:09:53;0.20;;;0.20;;
17065;SDS011;23120;52.336;21.182;2023-05-10T07:12:23;0.10;;;0.10;;
17065;SDS011;23120;52.336;21.182;2023-05-10T07:14:51;0.20;;;0.20;;
17065;SDS011;23120;52.336;21.182;2023-05-10T07:17:24;0.20;;;0.20;;
17065;SDS011;23120;52.336;21.182;2023-05-10T07:20:00;0.20;;;0.20;;
17065;SDS011;23120;52.336;21.182;2023-05-10T07:22:32;0.20;;;0.20;;
17065;SDS011;23120;52.336;21.182;2023-05-10T07:24:58;0.20;;;0.20;;
17065;SDS011;23120;52.336;21.182;2023-05-10T07:27:27;0.20;;;0.20;;
17065;SDS011;23120;52.336;21.182;2023-05-10T07:29:54;0.20;;;0.20;;
17065;SDS011;23120;52.336;21.182;2023-05-10T07:32:29;0.20;;;0.20;;
17065;SDS011;23120;52.336;21.182;2023-05-10T07:34:58;0.20;;;0.20;;
17065;SDS011;23120;52.336;21.182;2023-05-10T07:37:28;0.20;;;0.20;;
17065;SDS011;23120;52.336;21.182;2023-05-10T07:39:55;0.20;;;0.20;;
17065;SDS011;23120;52.336;21.182;2023-05-10T07:42:22;0.20;;;0.20;;
17065;SDS011;23120;52.336;21.182;2023-05-10T07:44:51;0.20;;;0.20;;
17065;SDS011;23120;52.336;21.182;2023-05-10T07:47:20;0.20;;;0.20;;
17065;SDS011;23120;52.336;21.182;2023-05-10T07:49:47;0.20;;;0.20;;
17065;SDS011;23120;52.336;21.182;2023-05-10T07:52:14;0.10;;;0.10;;
17065;SDS011;23120;52.336;21.182;2023-05-10T07:54:41;0.10;;;0.10;;
17065;SDS011;23120;52.336;21.182;2023-05-10T07:57:08;0.20;;;0.20;;
17065;SDS011;23120;52.336;21.182;2023-05-10T07:59:35;0.10;;;0.10;;
17065;SDS011;23120;52.336;21.182;2023-05-10T08:02:03;0.20;;;0.20;;
17065;SDS011;23120;52.336;21.182;2023-05-10T08:04:35;0.10;;;0.10;;
17065;SDS011;23120;52.336;21.182;2023-05-10T08:07:02;0.20;;;0.20;;
17065;SDS011;23120;52.336;21.182;2023-05-10T08:09:31;0.20;;;0.20;;
17065;SDS011;23120;52.336;21.182;2023-05-10T08:11:58;0.20;;;0.20;;
17065;SDS011;23120;52.336;21.182;2023-05-10T08:14:25;0.20;;;0.20;;
17065;SDS011;23120;52.336;21.182;2023-05-10T08:16:54;0.10;;;0.10;;
17065;SDS011;23120;52.336;21.182;2023-05-10T08:19:27;0.20;;;0.20;;
17065;SDS011;23120;52.336;21.182;2023-05-10T08:21:53;0.10;;;0.10;;
17065;SDS011;23120;52.336;21.182;2023-05-10T08:24:21;0.20;;;0.20;;
17065;SDS011;23120;52.336;21.182;2023-05-10T08:26:49;0.10;;;0.10;;
17065;SDS011;23120;52.336;21.182;2023-05-10T08:29:16;0.10;;;0.10;;
17065;SDS011;23120;52.336;21.182;2023-05-10T08:31:45;0.10;;;0.10;;
17065;SDS011;23120;52.336;21.182;2023-05-10T08:34:18;0.23;;;0.23;;
17065;SDS011;23120;52.336;21.182;2023-05-10T08:36:46;0.20;;;0.20;;
17065;SDS011;23120;52.336;21.182;2023-05-10T08:39:13;0.10;;;0.10;;
17065;SDS011;23120;52.336;21.182;2023-05-10T08:41:40;0.10;;;0.10;;
17065;SDS011;23120;52.336;21.182;2023-05-10T08:44:10;0.20;;;0.20;;
17065;SDS011;23120;52.336;21.182;2023-05-10T08:46:37;0.10;;;0.10;;
17065;SDS011;23120;52.336;21.182;2023-05-10T08:49:12;0.10;;;0.10;;
17065;SDS011;23120;52.336;21.182;2023-05-10T08:51:44;0.20;;;0.20;;
17065;SDS011;23120;52.336;21.182;2023-05-10T08:54:18;0.20;;;0.20;;
17065;SDS011;23120;52.336;21.182;2023-05-10T08:56:45;0.10;;;0.10;;
17065;SDS011;23120;52.336;21.182;2023-05-10T08:59:12;0.20;;;0.20;;
17065;SDS011;23120;52.336;21.182;2023-05-10T09:01:40;0.10;;;0.10;;
17065;SDS011;23120;52.336;21.182;2023-05-10T09:04:11;0.20;;;0.20;;
17065;SDS011;23120;52.336;21.182;2023-05-10T09:06:38;0.20;;;0.20;;
17065;SDS011;23120;52.336;21.182;2023-05-10T09:09:07;0.10;;;0.10;;
17065;SDS011;23120;52.336;21.182;2023-05-10T09:11:34;0.20;;;0.20;;
17065;SDS011;23120;52.336;21.182;2023-05-10T09:14:01;0.10;;;0.10;;
17065;SDS011;23120;52.336;21.182;2023-05-10T09:16:28;0.10;;;0.10;;
17065;SDS011;23120;52.336;21.182;2023-05-10T09:18:55;0.10;;;0.10;;
17065;SDS011;23120;52.336;21.182;2023-05-10T09:21:22;0.10;;;0.10;;
17065;SDS011;23120;52.336;21.182;2023-05-10T09:23:49;0.10;;;0.10;;
17065;SDS011;23120;52.336;21.182;2023-05-10T09:26:23;0.10;;;0.10;;
17065;SDS011;23120;52.336;21.182;2023-05-10T09:28:50;0.20;;;0.20;;
17065;SDS011;23120;52.336;21.182;2023-05-10T09:31:18;0.10;;;0.10;;
17065;SDS011;23120;52.336;21.182;2023-05-10T09:33:45;0.10;;;0.10;;
17065;SDS011;23120;52.336;21.182;2023-05-10T09:36:13;0.10;;;0.10;;
17065;SDS011;23120;52.336;21.182;2023-05-10T09:38:45;0.20;;;0.20;;
17065;SDS011;23120;52.336;21.182;2023-05-10T09:41:16;0.10;;;0.10;;
17065;SDS011;23120;52.336;21.182;2023-05-10T09:43:45;0.10;;;0.10;;
17065;SDS011;23120;52.336;21.182;2023-05-10T09:46:12;0.10;;;0.10;;
17065;SDS011;23120;52.336;21.182;2023-05-10T09:48:40;0.10;;;0.10;;
17065;SDS011;23120;52.336;21.182;2023-05-10T09:51:35;0.10;;;0.10;;
17065;SDS011;23120;52.336;21.182;2023-05-10T09:54:09;0.10;;;0.10;;
17065;SDS011;23120;52.336;21.182;2023-05-10T09:56:36;0.10;;;0.10;;
17065;SDS011;23120;52.336;21.182;2023-05-10T09:59:07;0.10;;;0.10;;
17065;SDS011;23120;52.336;21.182;2023-05-10T10:01:35;0.10;;;0.10;;
17065;SDS011;23120;52.336;21.182;2023-05-10T10:04:03;0.10;;;0.10;;
17065;SDS011;23120;52.336;21.182;2023-05-10T10:06:35;0.20;;;0.20;;
17065;SDS011;23120;52.336;21.182;2023-05-10T10:09:04;0.20;;;0.20;;
17065;SDS011;23120;52.336;21.182;2023-05-10T10:11:33;0.10;;;0.10;;
17065;SDS011;23120;52.336;21.182;2023-05-10T10:14:01;0.20;;;0.20;;
17065;SDS011;23120;52.336;21.182;2023-05-10T10:16:30;0.10;;;0.10;;
17065;SDS011;23120;52.336;21.182;2023-05-10T10:18:59;0.10;;;0.10;;
17065;SDS011;23120;52.336;21.182;2023-05-10T10:21:27;0.10;;;0.10;;
17065;SDS011;23120;52.336;21.182;2023-05-10T10:23:54;0.10;;;0.10;;
17065;SDS011;23120;52.336;21.182;2023-05-10T10:26:21;0.10;;;0.10;;
17065;SDS011;23120;52.336;21.182;2023-05-10T10:28:50;0.20;;;0.20;;
17065;SDS011;23120;52.336;21.182;2023-05-10T10:31:24;0.10;;;0.10;;
17065;SDS011;23120;52.336;21.182;2023-05-10T10:34:01;0.10;;;0.10;;
17065;SDS011;23120;52.336;21.182;2023-05-10T10:36:32;0.08;;;0.08;;
17065;SDS011;23120;52.336;21.182;2023-05-10T10:39:02;0.10;;;0.10;;
17065;SDS011;23120;52.336;21.182;2023-05-10T10:41:36;0.10;;;0.10;;
17065;SDS011;23120;52.336;21.182;2023-05-10T10:44:25;0.10;;;0.10;;
17065;SDS011;23120;52.336;21.182;2023-05-10T10:47:01;0.10;;;0.10;;
17065;SDS011;23120;52.336;21.182;2023-05-10T10:49:33;0.10;;;0.10;;
17065;SDS011;23120;52.336;21.182;2023-05-10T10:54:59;0.10;;;0.10;;
17065;SDS011;23120;52.336;21.182;2023-05-10T10:57:34;0.10;;;0.10;;
17065;SDS011;23120;52.336;21.182;2023-05-10T11:00:19;0.10;;;0.10;;
17065;SDS011;23120;52.336;21.182;2023-05-10T11:03:06;0.10;;;0.10;;
17065;SDS011;23120;52.336;21.182;2023-05-10T11:05:38;0.10;;;0.10;;
17065;SDS011;23120;52.336;21.182;2023-05-10T11:08:07;0.10;;;0.10;;
17065;SDS011;23120;52.336;21.182;2023-05-10T11:10:39;0.10;;;0.10;;
17065;SDS011;23120;52.336;21.182;2023-05-10T11:13:17;0.00;;;0.00;;
17065;SDS011;23120;52.336;21.182;2023-05-10T11:15:53;0.00;;;0.00;;
17065;SDS011;23120;52.336;21.182;2023-05-10T11:18:23;0.10;;;0.10;;
17065;SDS011;23120;52.336;21.182;2023-05-10T11:20:52;0.10;;;0.10;;
17065;SDS011;23120;52.336;21.182;2023-05-10T11:23:23;0.03;;;0.03;;
17065;SDS011;23120;52.336;21.182;2023-05-10T11:25:50;0.10;;;0.10;;
17065;SDS011;23120;52.336;21.182;2023-05-10T11:28:17;0.10;;;0.10;;
17065;SDS011;23120;52.336;21.182;2023-05-10T11:30:45;0.10;;;0.10;;
17065;SDS011;23120;52.336;21.182;2023-05-10T11:33:17;0.10;;;0.10;;
17065;SDS011;23120;52.336;21.182;2023-05-10T11:35:45;0.08;;;0.08;;
17065;SDS011;23120;52.336;21.182;2023-05-10T11:38:14;0.10;;;0.10;;
17065;SDS011;23120;52.336;21.182;2023-05-10T11:40:40;0.10;;;0.10;;
17065;SDS011;23120;52.336;21.182;2023-05-10T11:43:08;0.00;;;0.00;;
17065;SDS011;23120;52.336;21.182;2023-05-10T11:45:37;0.10;;;0.10;;
17065;SDS011;23120;52.336;21.182;2023-05-10T11:48:04;0.10;;;0.10;;
17065;SDS011;23120;52.336;21.182;2023-05-10T11:50:31;0.10;;;0.10;;
17065;SDS011;23120;52.336;21.182;2023-05-10T11:52:59;0.00;;;0.00;;
17065;SDS011;23120;52.336;21.182;2023-05-10T11:55:27;0.10;;;0.10;;
17065;SDS011;23120;52.336;21.182;2023-05-10T11:58:00;0.00;;;0.00;;
17065;SDS011;23120;52.336;21.182;2023-05-10T12:00:28;0.10;;;0.10;;
17065;SDS011;23120;52.336;21.182;2023-05-10T12:02:56;0.10;;;0.10;;
17065;SDS011;23120;52.336;21.182;2023-05-10T12:05:23;0.10;;;0.10;;
17065;SDS011;23120;52.336;21.182;2023-05-10T12:07:50;0.10;;;0.10;;
17065;SDS011;23120;52.336;21.182;2023-05-10T12:10:17;0.10;;;0.10;;
17065;SDS011;23120;52.336;21.182;2023-05-10T12:12:52;0.10;;;0.10;;
17065;SDS011;23120;52.336;21.182;2023-05-10T12:15:20;0.10;;;0.10;;
17065;SDS011;23120;52.336;21.182;2023-05-10T12:17:50;0.10;;;0.10;;
17065;SDS011;23120;52.336;21.182;2023-05-10T12:20:18;0.10;;;0.10;;
17065;SDS011;23120;52.336;21.182;2023-05-10T12:22:46;0.03;;;0.03;;
17065;SDS011;23120;52.336;21.182;2023-05-10T12:25:16;0.10;;;0.10;;
17065;SDS011;23120;52.336;21.182;2023-05-10T12:27:51;0.10;;;0.10;;
17065;SDS011;23120;52.336;21.182;2023-05-10T12:30:23;0.00;;;0.00;;
17065;SDS011;23120;52.336;21.182;2023-05-10T12:32:51;0.08;;;0.08;;
17065;SDS011;23120;52.336;21.182;2023-05-10T12:35:18;0.10;;;0.10;;
17065;SDS011;23120;52.336;21.182;2023-05-10T12:37:47;0.10;;;0.10;;
17065;SDS011;23120;52.336;21.182;2023-05-10T12:40:14;0.10;;;0.10;;
17065;SDS011;23120;52.336;21.182;2023-05-10T12:42:41;0.10;;;0.10;;
17065;SDS011;23120;52.336;21.182;2023-05-10T12:45:11;0.00;;;0.00;;
17065;SDS011;23120;52.336;21.182;2023-05-10T12:47:44;0.08;;;0.08;;
17065;SDS011;23120;52.336;21.182;2023-05-10T12:50:23;0.10;;;0.10;;
17065;SDS011;23120;52.336;21.182;2023-05-10T12:52:52;0.10;;;0.10;;
17065;SDS011;23120;52.336;21.182;2023-05-10T12:55:31;0.10;;;0.10;;
17065;SDS011;23120;52.336;21.182;2023-05-10T12:57:58;0.10;;;0.10;;
17065;SDS011;23120;52.336;21.182;2023-05-10T13:00:28;0.10;;;0.10;;
17065;SDS011;23120;52.336;21.182;2023-05-10T13:02:59;0.00;;;0.00;;
17065;SDS011;23120;52.336;21.182;2023-05-10T13:05:26;0.00;;;0.00;;
17065;SDS011;23120;52.336;21.182;2023-05-10T13:07:55;0.00;;;0.00;;
17065;SDS011;23120;52.336;21.182;2023-05-10T13:10:22;0.00;;;0.00;;
17065;SDS011;23120;52.336;21.182;2023-05-10T13:12:50;0.10;;;0.10;;
17065;SDS011;23120;52.336;21.182;2023-05-10T13:15:17;0.10;;;0.10;;
17065;SDS011;23120;52.336;21.182;2023-05-10T13:17:55;0.10;;;0.10;;
17065;SDS011;23120;52.336;21.182;2023-05-10T13:20:22;0.00;;;0.00;;
17065;SDS011;23120;52.336;21.182;2023-05-10T13:22:51;0.10;;;0.10;;
17065;SDS011;23120;52.336;21.182;2023-05-10T13:25:19;0.10;;;0.10;;
17065;SDS011;23120;52.336;21.182;2023-05-10T13:27:50;0.10;;;0.10;;
17065;SDS011;23120;52.336;21.182;2023-05-10T13:30:20;0.00;;;0.00;;
17065;SDS011;23120;52.336;21.182;2023-05-10T13:32:47;0.10;;;0.10;;
17065;SDS011;23120;52.336;21.182;2023-05-10T13:35:24;0.10;;;0.10;;
17065;SDS011;23120;52.336;21.182;2023-05-10T13:37:53;0.00;;;0.00;;
17065;SDS011;23120;52.336;21.182;2023-05-10T13:40:22;0.00;;;0.00;;
17065;SDS011;23120;52.336;21.182;2023-05-10T13:42:49;0.10;;;0.10;;
17065;SDS011;23120;52.336;21.182;2023-05-10T13:45:17;0.10;;;0.10;;
17065;SDS011;23120;52.336;21.182;2023-05-10T13:47:44;0.10;;;0.10;;
17065;SDS011;23120;52.336;21.182;2023-05-10T13:50:12;0.00;;;0.00;;
17065;SDS011;23120;52.336;21.182;2023-05-10T13:52:40;0.10;;;0.10;;
17065;SDS011;23120;52.336;21.182;2023-05-10T13:55:08;0.10;;;0.10;;
17065;SDS011;23120;52.336;21.182;2023-05-10T13:57:37;0.10;;;0.10;;
17065;SDS011;23120;52.336;21.182;2023-05-10T14:00:05;0.00;;;0.00;;
17065;SDS011;23120;52.336;21.182;2023-05-10T14:02:34;0.10;;;0.10;;
17065;SDS011;23120;52.336;21.182;2023-05-10T14:05:01;0.00;;;0.00;;
17065;SDS011;23120;52.336;21.182;2023-05-10T14:07:30;0.08;;;0.08;;
17065;SDS011;23120;52.336;21.182;2023-05-10T14:09:59;0.10;;;0.10;;
17065;SDS011;23120;52.336;21.182;2023-05-10T14:12:28;0.10;;;0.10;;
17065;SDS011;23120;52.336;21.182;2023-05-10T14:14:55;0.08;;;0.08;;
17065;SDS011;23120;52.336;21.182;2023-05-10T14:17:23;0.03;;;0.03;;
17065;SDS011;23120;52.336;21.182;2023-05-10T14:19:50;0.00;;;0.00;;
17065;SDS011;23120;52.336;21.182;2023-05-10T14:22:17;0.05;;;0.05;;
17065;SDS011;23120;52.336;21.182;2023-05-10T14:24:44;0.00;;;0.00;;
17065;SDS011;23120;52.336;21.182;2023-05-10T14:27:13;0.00;;;0.00;;
17065;SDS011;23120;52.336;21.182;2023-05-10T14:29:41;0.10;;;0.10;;
17065;SDS011;23120;52.336;21.182;2023-05-10T14:32:08;0.00;;;0.00;;
17065;SDS011;23120;52.336;21.182;2023-05-10T14:34:35;0.00;;;0.00;;
17065;SDS011;23120;52.336;21.182;2023-05-10T14:37:01;0.00;;;0.00;;
17065;SDS011;23120;52.336;21.182;2023-05-10T14:39:29;0.10;;;0.10;;
17065;SDS011;23120;52.336;21.182;2023-05-10T14:41:56;0.10;;;0.10;;
17065;SDS011;23120;52.336;21.182;2023-05-10T14:44:25;0.00;;;0.00;;
17065;SDS011;23120;52.336;21.182;2023-05-10T14:46:53;0.08;;;0.08;;
17065;SDS011;23120;52.336;21.182;2023-05-10T14:49:21;0.03;;;0.03;;
17065;SDS011;23120;52.336;21.182;2023-05-10T14:51:50;0.00;;;0.00;;
17065;SDS011;23120;52.336;21.182;2023-05-10T14:54:18;0.00;;;0.00;;
17065;SDS011;23120;52.336;21.182;2023-05-10T14:56:45;0.10;;;0.10;;
17065;SDS011;23120;52.336;21.182;2023-05-10T14:59:15;0.00;;;0.00;;
17065;SDS011;23120;52.336;21.182;2023-05-10T15:01:44;0.00;;;0.00;;
17065;SDS011;23120;52.336;21.182;2023-05-10T15:04:11;0.00;;;0.00;;